createdAt,value
2022-11-23T00:00:28.840Z,98085.09
2022-11-23T00:05:33.714Z,98094.53
2022-11-23T00:10:36.996Z,98091.06
2022-11-23T00:15:42.243Z,98090.97
2022-11-23T00:20:47.070Z,98084.00
2022-11-23T00:25:50.236Z,98096.91
2022-11-23T00:30:53.488Z,98098.47
2022-11-23T00:36:06.486Z,98090.75
2022-11-23T00:41:12.365Z,98093.38
2022-11-23T00:46:18.255Z,98085.69
2022-11-23T00:51:24.773Z,98092.63
2022-11-23T00:56:28.203Z,98081.34
2022-11-23T01:01:34.098Z,98073.72
2022-11-23T01:06:41.061Z,98079.69
2022-11-23T01:11:45.077Z,98080.38
2022-11-23T01:16:48.500Z,98072.78
2022-11-23T01:21:53.161Z,98080.50
2022-11-23T01:26:57.052Z,98085.84
2022-11-23T01:32:00.211Z,98084.06
2022-11-23T01:37:04.878Z,98086.59
2022-11-23T01:42:08.786Z,98089.06
2022-11-23T01:47:12.363Z,98099.47
2022-11-23T01:52:21.847Z,98084.09
2022-11-23T01:57:28.934Z,98084.81
2022-11-23T02:02:34.017Z,98081.53
2022-11-23T02:07:40.261Z,98083.19
2022-11-23T02:12:43.463Z,98089.97
2022-11-23T02:17:47.721Z,98087.50
2022-11-23T02:23:05.652Z,98084.16
2022-11-23T02:28:11.114Z,98093.47
2022-11-23T02:33:14.409Z,98097.72
2022-11-23T02:38:18.541Z,98101.13
2022-11-23T02:43:23.364Z,98100.41
2022-11-23T02:48:27.429Z,98096.19
2022-11-23T02:53:30.545Z,98082.34
2022-11-23T02:58:35.102Z,98096.13
2022-11-23T03:03:38.407Z,98090.13
2022-11-23T03:08:41.601Z,98090.94
2022-11-23T03:13:46.141Z,98087.38
2022-11-23T03:18:49.521Z,98084.84
2022-11-23T03:23:53.017Z,98084.03
2022-11-23T03:28:57.583Z,98088.38
2022-11-23T03:34:00.784Z,98092.44
2022-11-23T03:39:04.087Z,98100.97
2022-11-23T03:44:08.740Z,98118.16
2022-11-23T03:49:12.766Z,98118.19
2022-11-23T03:54:16.063Z,98100.97
2022-11-23T03:59:20.760Z,98105.28
2022-11-23T04:04:24.078Z,98105.25
2022-11-23T04:09:27.363Z,98114.75
2022-11-23T04:14:32.053Z,98109.81
2022-11-23T04:19:35.581Z,98107.94
2022-11-23T04:24:38.786Z,98104.56
2022-11-23T04:29:43.530Z,98113.16
2022-11-23T04:34:46.814Z,98115.69
2022-11-23T04:39:50.097Z,98117.41
2022-11-23T04:44:55.257Z,98121.78
2022-11-23T04:49:58.723Z,98122.66
2022-11-23T04:55:01.919Z,98123.53
2022-11-23T05:00:09.384Z,98130.38
2022-11-23T05:05:12.753Z,98115.06
2022-11-23T05:10:16.128Z,98121.00
2022-11-23T05:15:20.920Z,98121.03
2022-11-23T05:20:24.467Z,98131.28
2022-11-23T05:25:28.260Z,98126.13
2022-11-23T05:30:33.081Z,98126.09
2022-11-23T05:35:36.243Z,98130.72
2022-11-23T05:40:39.453Z,98144.75
2022-11-23T05:45:44.077Z,98145.19
2022-11-23T05:50:47.215Z,98138.00
2022-11-23T05:55:50.369Z,98139.72
2022-11-23T06:00:59.182Z,98144.38
2022-11-23T06:06:02.530Z,98155.59
2022-11-23T06:11:06.048Z,98153.03
2022-11-23T06:16:10.747Z,98149.59
2022-11-23T06:21:13.982Z,98143.59
2022-11-23T06:26:17.264Z,98137.53
2022-11-23T06:31:21.998Z,98143.38
2022-11-23T06:36:25.045Z,98148.41
2022-11-23T06:41:32.385Z,98150.09
2022-11-23T06:46:37.504Z,98143.88
2022-11-23T06:51:40.806Z,98142.97
2022-11-23T06:56:44.120Z,98153.25
2022-11-23T07:01:49.818Z,98159.16
2022-11-23T07:06:53.077Z,98163.41
2022-11-23T07:11:56.294Z,98157.38
2022-11-23T07:17:01.150Z,98170.19
2022-11-23T07:22:04.496Z,98166.56
2022-11-23T07:27:07.928Z,98173.44
2022-11-23T07:32:14.865Z,98182.09
2022-11-23T07:37:18.157Z,98184.53
2022-11-23T07:42:33.458Z,98182.88
2022-11-23T07:47:41.265Z,98193.94
2022-11-23T07:52:44.462Z,98191.34
2022-11-23T07:57:47.657Z,98186.25
2022-11-23T08:03:25.426Z,98184.53
2022-11-23T08:08:15.719Z,98183.78
2022-11-23T08:13:19.179Z,98195.53
2022-11-23T08:18:24.211Z,98188.06
2022-11-23T08:23:27.687Z,98185.63
2022-11-23T08:28:30.873Z,98186.59
2022-11-23T08:33:35.657Z,98178.69
2022-11-23T08:38:38.976Z,98186.44
2022-11-23T08:43:42.300Z,98191.63
2022-11-23T08:48:47.095Z,98189.94
2022-11-23T08:53:50.879Z,98178.78
2022-11-23T08:58:54.088Z,98199.16
2022-11-23T09:03:59.005Z,98194.09
2022-11-23T09:09:02.507Z,98191.34
2022-11-23T09:14:05.967Z,98196.50
2022-11-23T09:19:14.183Z,98199.16
2022-11-23T09:24:17.443Z,98169.22
2022-11-23T09:29:20.960Z,98196.91
2022-11-23T09:34:25.540Z,98196.03
2022-11-23T09:39:28.723Z,98198.59
2022-11-23T09:44:49.396Z,98204.66
2022-11-23T09:50:03.206Z,98208.91
2022-11-23T09:55:17.641Z,98205.38
2022-11-23T10:00:24.071Z,98207.13
2022-11-23T10:05:34.883Z,98208.13
2022-11-23T10:10:43.358Z,98206.50
2022-11-23T10:15:58.020Z,98212.59
2022-11-23T10:21:16.367Z,98210.19
2022-11-23T10:26:23.176Z,98212.66
2022-11-23T10:31:27.159Z,98219.44
2022-11-23T10:36:36.177Z,98226.16
2022-11-23T10:41:39.608Z,98225.13
2022-11-23T10:46:42.991Z,98215.53
2022-11-23T10:51:56.282Z,98216.38
2022-11-23T10:57:01.184Z,98218.09
2022-11-23T11:02:12.915Z,98224.06
2022-11-23T11:07:28.720Z,98221.50
2022-11-23T11:12:35.550Z,98213.78
2022-11-23T11:17:39.837Z,98223.06
2022-11-23T11:22:47.822Z,98222.16
2022-11-23T11:27:53.514Z,98221.94
2022-11-23T11:33:01.936Z,98227.06
2022-11-23T11:38:16.470Z,98233.91
2022-11-23T11:43:29.425Z,98233.03
2022-11-23T11:48:39.857Z,98252.56
2022-11-23T11:53:51.036Z,98257.75
2022-11-23T11:59:02.836Z,98257.59
2022-11-23T12:04:11.924Z,98274.69
2022-11-23T12:09:21.636Z,98276.25
2022-11-23T12:14:25.142Z,98272.66
2022-11-23T12:19:32.880Z,98288.13
2022-11-23T12:25:01.210Z,98288.97
2022-11-23T12:30:23.395Z,98292.28
2022-11-23T12:35:43.750Z,98301.63
2022-11-23T12:41:05.561Z,98314.25
2022-11-23T12:46:14.737Z,98322.78
2022-11-23T12:51:27.426Z,98341.66
2022-11-23T12:56:59.666Z,98343.28
2022-11-23T13:02:11.037Z,98355.09
2022-11-23T13:07:49.048Z,98355.47
2022-11-23T13:13:17.810Z,98353.72
2022-11-23T13:18:37.018Z,98363.03
2022-11-23T13:23:41.283Z,98367.44
2022-11-23T13:28:47.455Z,98358.00
2022-11-23T13:33:52.841Z,98364.09
2022-11-23T13:38:56.436Z,98369.94
2022-11-23T13:44:13.433Z,98379.44
2022-11-23T13:49:32.627Z,98375.13
2022-11-23T13:54:35.985Z,98386.81
2022-11-23T13:59:40.856Z,98390.72
2022-11-23T14:04:44.722Z,98387.34
2022-11-23T14:09:52.855Z,98389.06
2022-11-23T14:15:04.937Z,98408.75
2022-11-23T14:20:31.753Z,98408.53
2022-11-23T14:25:45.613Z,98415.22
2022-11-23T14:31:01.624Z,98419.31
2022-11-23T14:36:14.161Z,98406.22
2022-11-23T14:41:20.806Z,98430.13
2022-11-23T14:46:26.200Z,98427.88
2022-11-23T14:51:30.486Z,98434.47
2022-11-23T14:56:36.229Z,98436.84
2022-11-23T15:01:43.154Z,98439.50
2022-11-23T15:06:51.181Z,98444.78
2022-11-23T15:12:07.522Z,98432.06
2022-11-23T15:17:20.812Z,98443.91
2022-11-23T15:22:24.831Z,98458.19
2022-11-23T15:27:29.518Z,98472.03
2022-11-23T15:32:35.245Z,98461.72
2022-11-23T15:37:45.786Z,98484.81
2022-11-23T15:42:52.309Z,98489.81
2022-11-23T15:48:01.505Z,98498.19
2022-11-23T15:53:04.885Z,98501.19
2022-11-23T15:58:10.711Z,98493.63
2022-11-23T16:03:33.401Z,98500.25
2022-11-23T16:08:38.458Z,98517.69
2022-11-23T16:13:41.779Z,98518.34
2022-11-23T16:18:48.492Z,98517.38
2022-11-23T16:23:54.488Z,98514.72
2022-11-23T16:28:59.937Z,98527.00
2022-11-23T16:34:04.759Z,98523.47
2022-11-23T16:39:07.817Z,98534.44
2022-11-23T16:44:11.265Z,98532.31
2022-11-23T16:49:21.214Z,98536.84
2022-11-23T16:54:31.757Z,98536.47
2022-11-23T16:59:36.158Z,98552.50
2022-11-23T17:04:40.919Z,98550.63
2022-11-23T17:09:44.211Z,98564.38
2022-11-23T17:14:50.118Z,98569.50
2022-11-23T17:19:56.607Z,98573.50
2022-11-23T17:25:03.241Z,98576.13
2022-11-23T17:30:13.029Z,98587.31
2022-11-23T17:35:18.744Z,98593.06
2022-11-23T17:40:23.968Z,98593.63
2022-11-23T17:45:27.207Z,98609.22
2022-11-23T17:50:31.823Z,98600.78
2022-11-23T17:55:35.305Z,98617.06
2022-11-23T18:00:40.152Z,98613.69
2022-11-23T18:05:44.826Z,98617.97
2022-11-23T18:10:48.394Z,98624.22
2022-11-23T18:15:51.639Z,98618.47
2022-11-23T18:20:56.672Z,98627.97
2022-11-23T18:26:00.266Z,98622.03
2022-11-23T18:31:04.134Z,98631.94
2022-11-23T18:36:10.775Z,98629.72
2022-11-23T18:41:16.528Z,98636.53
2022-11-23T18:46:20.232Z,98639.56
2022-11-23T18:51:24.886Z,98640.91
2022-11-23T18:56:28.443Z,98641.34
2022-11-23T19:01:31.863Z,98642.88
2022-11-23T19:06:38.415Z,98646.19
2022-11-23T19:11:41.716Z,98657.63
2022-11-23T19:16:45.223Z,98665.25
2022-11-23T19:21:49.814Z,98667.75
2022-11-23T19:26:52.950Z,98677.63
2022-11-23T19:31:58.177Z,98691.31
2022-11-23T19:37:03.366Z,98690.44
2022-11-23T19:42:06.678Z,98693.56
2022-11-23T19:47:15.361Z,98703.94
2022-11-23T19:52:22.189Z,98703.84
2022-11-23T19:57:25.525Z,98705.16
2022-11-23T20:02:30.256Z,98714.47
2022-11-23T20:07:34.620Z,98717.22
2022-11-23T20:12:37.843Z,98714.00
2022-11-23T20:17:41.029Z,98723.59
2022-11-23T20:22:45.729Z,98716.91
2022-11-23T20:27:49.201Z,98731.84
2022-11-23T20:32:52.433Z,98736.34
2022-11-23T20:37:57.775Z,98733.75
2022-11-23T20:43:01.174Z,98744.94
2022-11-23T20:48:04.727Z,98748.00
2022-11-23T20:53:11.867Z,98758.44
2022-11-23T20:58:17.638Z,98761.81
2022-11-23T21:03:20.968Z,98763.31
2022-11-23T21:08:33.119Z,98770.44
2022-11-23T21:13:55.030Z,98771.72
2022-11-23T21:18:58.249Z,98788.66
2022-11-23T21:24:03.008Z,98790.84
2022-11-23T21:29:09.853Z,98792.47
2022-11-23T21:34:19.265Z,98786.50
2022-11-23T21:39:24.644Z,98794.09
2022-11-23T21:44:27.915Z,98804.09
2022-11-23T21:49:31.390Z,98806.75
2022-11-23T21:54:36.406Z,98807.13
2022-11-23T21:59:40.103Z,98804.56
2022-11-23T22:04:43.356Z,98815.66
2022-11-23T22:09:47.916Z,98820.94
2022-11-23T22:14:51.057Z,98830.00
2022-11-23T22:19:54.472Z,98830.59
2022-11-23T22:24:59.163Z,98831.50
2022-11-23T22:30:02.465Z,98825.72
2022-11-23T22:35:08.214Z,98834.34
2022-11-23T22:40:14.063Z,98833.31
2022-11-23T22:45:17.471Z,98830.66
2022-11-23T22:50:20.938Z,98839.00
2022-11-23T22:55:25.621Z,98845.22
2022-11-23T23:00:28.842Z,98857.50
2022-11-23T23:05:32.207Z,98853.97
2022-11-23T23:10:37.000Z,98847.88
2022-11-23T23:15:40.008Z,98852.19
2022-11-23T23:20:43.675Z,98860.91
2022-11-23T23:25:48.207Z,98866.00
2022-11-23T23:30:51.385Z,98870.81
2022-11-23T23:35:54.488Z,98872.66
2022-11-23T23:40:59.199Z,98873.59
2022-11-23T23:46:03.276Z,98865.47
2022-11-23T23:51:07.415Z,98867.06
2022-11-23T23:56:15.172Z,98876.41
